sensor_id;sensor_type;location;lat;lon;timestamp;P1;durP1;ratioP1;P2;durP2;ratioP2
37843;SDS011;63793;57.632;18.292;2022-11-02T00:02:16;31.40;;;18.23;;
37843;SDS011;63793;57.632;18.292;2022-11-02T00:04:43;32.70;;;18.83;;
37843;SDS011;63793;57.632;18.292;2022-11-02T00:07:10;35.40;;;17.95;;
37843;SDS011;63793;57.632;18.292;2022-11-02T00:09:37;32.53;;;17.50;;
37843;SDS011;63793;57.632;18.292;2022-11-02T00:12:04;28.63;;;17.08;;
37843;SDS011;63793;57.632;18.292;2022-11-02T00:14:31;26.67;;;17.63;;
37843;SDS011;63793;57.632;18.292;2022-11-02T00:16:58;27.58;;;18.75;;
37843;SDS011;63793;57.632;18.292;2022-11-02T00:19:25;27.38;;;18.13;;
37843;SDS011;63793;57.632;18.292;2022-11-02T00:21:51;28.35;;;17.58;;
37843;SDS011;63793;57.632;18.292;2022-11-02T00:24:19;31.17;;;17.73;;
37843;SDS011;63793;57.632;18.292;2022-11-02T00:26:47;36.67;;;22.10;;
37843;SDS011;63793;57.632;18.292;2022-11-02T00:29:14;28.30;;;17.58;;
37843;SDS011;63793;57.632;18.292;2022-11-02T00:31:40;29.50;;;19.10;;
37843;SDS011;63793;57.632;18.292;2022-11-02T00:34:07;33.97;;;18.90;;
37843;SDS011;63793;57.632;18.292;2022-11-02T00:36:34;31.35;;;21.02;;
37843;SDS011;63793;57.632;18.292;2022-11-02T00:39:01;35.38;;;21.63;;
37843;SDS011;63793;57.632;18.292;2022-11-02T00:41:28;34.40;;;22.38;;
37843;SDS011;63793;57.632;18.292;2022-11-02T00:43:56;36.13;;;23.45;;
37843;SDS011;63793;57.632;18.292;2022-11-02T00:46:22;29.15;;;17.27;;
37843;SDS011;63793;57.632;18.292;2022-11-02T00:48:49;28.40;;;20.10;;
37843;SDS011;63793;57.632;18.292;2022-11-02T00:51:16;39.97;;;20.33;;
37843;SDS011;63793;57.632;18.292;2022-11-02T00:53:43;35.50;;;21.52;;
37843;SDS011;63793;57.632;18.292;2022-11-02T00:56:10;31.60;;;19.80;;
37843;SDS011;63793;57.632;18.292;2022-11-02T00:58:37;33.50;;;19.48;;
37843;SDS011;63793;57.632;18.292;2022-11-02T01:01:05;34.97;;;19.00;;
37843;SDS011;63793;57.632;18.292;2022-11-02T01:03:34;35.33;;;20.83;;
37843;SDS011;63793;57.632;18.292;2022-11-02T01:06:10;33.10;;;19.55;;
37843;SDS011;63793;57.632;18.292;2022-11-02T01:08:39;28.67;;;18.60;;
37843;SDS011;63793;57.632;18.292;2022-11-02T01:11:14;35.08;;;19.10;;
37843;SDS011;63793;57.632;18.292;2022-11-02T01:13:42;32.42;;;20.70;;
37843;SDS011;63793;57.632;18.292;2022-11-02T01:16:10;27.17;;;17.02;;
37843;SDS011;63793;57.632;18.292;2022-11-02T01:18:38;30.77;;;18.30;;
37843;SDS011;63793;57.632;18.292;2022-11-02T01:21:06;32.72;;;20.63;;
37843;SDS011;63793;57.632;18.292;2022-11-02T01:23:33;31.40;;;19.58;;
37843;SDS011;63793;57.632;18.292;2022-11-02T01:26:05;26.10;;;18.00;;
37843;SDS011;63793;57.632;18.292;2022-11-02T01:28:34;26.30;;;18.58;;
37843;SDS011;63793;57.632;18.292;2022-11-02T01:31:01;31.90;;;18.92;;
37843;SDS011;63793;57.632;18.292;2022-11-02T01:33:29;31.90;;;17.45;;
37843;SDS011;63793;57.632;18.292;2022-11-02T01:35:56;26.48;;;18.25;;
37843;SDS011;63793;57.632;18.292;2022-11-02T01:38:23;24.85;;;16.88;;
37843;SDS011;63793;57.632;18.292;2022-11-02T01:40:50;31.73;;;18.73;;
37843;SDS011;63793;57.632;18.292;2022-11-02T01:45:53;29.73;;;16.80;;
37843;SDS011;63793;57.632;18.292;2022-11-02T01:48:32;34.38;;;19.90;;
37843;SDS011;63793;57.632;18.292;2022-11-02T01:51:06;24.48;;;16.33;;
37843;SDS011;63793;57.632;18.292;2022-11-02T01:53:36;26.83;;;17.77;;
37843;SDS011;63793;57.632;18.292;2022-11-02T01:56:08;28.92;;;19.13;;
37843;SDS011;63793;57.632;18.292;2022-11-02T01:58:37;26.63;;;17.63;;
37843;SDS011;63793;57.632;18.292;2022-11-02T02:01:04;28.83;;;17.77;;
37843;SDS011;63793;57.632;18.292;2022-11-02T02:03:31;23.13;;;14.50;;
37843;SDS011;63793;57.632;18.292;2022-11-02T02:06:05;25.83;;;15.98;;
37843;SDS011;63793;57.632;18.292;2022-11-02T02:08:36;25.15;;;15.40;;
37843;SDS011;63793;57.632;18.292;2022-11-02T02:13:57;22.55;;;13.98;;
37843;SDS011;63793;57.632;18.292;2022-11-02T02:16:30;17.85;;;13.38;;
37843;SDS011;63793;57.632;18.292;2022-11-02T02:19:07;22.20;;;15.65;;
37843;SDS011;63793;57.632;18.292;2022-11-02T02:21:49;17.77;;;12.35;;
37843;SDS011;63793;57.632;18.292;2022-11-02T02:24:41;21.38;;;14.25;;
37843;SDS011;63793;57.632;18.292;2022-11-02T02:32:52;15.93;;;11.35;;
37843;SDS011;63793;57.632;18.292;2022-11-02T02:35:40;15.38;;;12.50;;
37843;SDS011;63793;57.632;18.292;2022-11-02T02:38:31;17.33;;;10.73;;
37843;SDS011;63793;57.632;18.292;2022-11-02T02:41:18;14.05;;;10.20;;
37843;SDS011;63793;57.632;18.292;2022-11-02T02:43:55;18.08;;;10.75;;
37843;SDS011;63793;57.632;18.292;2022-11-02T02:46:35;15.65;;;11.05;;
37843;SDS011;63793;57.632;18.292;2022-11-02T02:49:40;16.60;;;10.77;;
37843;SDS011;63793;57.632;18.292;2022-11-02T02:52:20;15.75;;;11.30;;
37843;SDS011;63793;57.632;18.292;2022-11-02T02:57:21;14.77;;;10.10;;
37843;SDS011;63793;57.632;18.292;2022-11-02T02:59:51;17.50;;;10.88;;
37843;SDS011;63793;57.632;18.292;2022-11-02T03:02:23;14.82;;;10.30;;
37843;SDS011;63793;57.632;18.292;2022-11-02T03:04:53;15.85;;;10.00;;
37843;SDS011;63793;57.632;18.292;2022-11-02T03:07:23;17.58;;;10.57;;
37843;SDS011;63793;57.632;18.292;2022-11-02T03:12:38;12.00;;;8.65;;
37843;SDS011;63793;57.632;18.292;2022-11-02T03:15:34;14.85;;;9.43;;
37843;SDS011;63793;57.632;18.292;2022-11-02T03:23:25;12.95;;;9.75;;
37843;SDS011;63793;57.632;18.292;2022-11-02T03:36:38;17.38;;;10.18;;
37843;SDS011;63793;57.632;18.292;2022-11-02T03:39:12;15.07;;;9.50;;
37843;SDS011;63793;57.632;18.292;2022-11-02T03:41:43;18.38;;;11.95;;
37843;SDS011;63793;57.632;18.292;2022-11-02T03:44:14;11.40;;;9.45;;
37843;SDS011;63793;57.632;18.292;2022-11-02T03:46:46;18.63;;;9.80;;
37843;SDS011;63793;57.632;18.292;2022-11-02T03:49:17;14.32;;;8.88;;
37843;SDS011;63793;57.632;18.292;2022-11-02T03:51:48;18.10;;;11.00;;
37843;SDS011;63793;57.632;18.292;2022-11-02T03:54:27;18.67;;;9.55;;
37843;SDS011;63793;57.632;18.292;2022-11-02T03:57:06;15.45;;;10.20;;
37843;SDS011;63793;57.632;18.292;2022-11-02T03:59:36;14.60;;;10.27;;
37843;SDS011;63793;57.632;18.292;2022-11-02T04:02:03;14.05;;;8.85;;
37843;SDS011;63793;57.632;18.292;2022-11-02T04:04:30;16.08;;;9.90;;
37843;SDS011;63793;57.632;18.292;2022-11-02T04:06:58;15.52;;;10.25;;
37843;SDS011;63793;57.632;18.292;2022-11-02T04:09:24;16.58;;;9.85;;
37843;SDS011;63793;57.632;18.292;2022-11-02T04:11:51;15.27;;;9.93;;
37843;SDS011;63793;57.632;18.292;2022-11-02T04:14:37;10.25;;;7.70;;
37843;SDS011;63793;57.632;18.292;2022-11-02T04:17:09;18.25;;;10.32;;
37843;SDS011;63793;57.632;18.292;2022-11-02T04:19:59;18.25;;;9.38;;
37843;SDS011;63793;57.632;18.292;2022-11-02T04:22:26;13.55;;;8.70;;
37843;SDS011;63793;57.632;18.292;2022-11-02T04:25:14;10.90;;;8.07;;
37843;SDS011;63793;57.632;18.292;2022-11-02T04:28:06;12.27;;;9.32;;
37843;SDS011;63793;57.632;18.292;2022-11-02T04:30:40;13.88;;;8.27;;
37843;SDS011;63793;57.632;18.292;2022-11-02T04:33:07;15.90;;;8.48;;
37843;SDS011;63793;57.632;18.292;2022-11-02T04:36:02;20.48;;;9.43;;
37843;SDS011;63793;57.632;18.292;2022-11-02T04:38:31;14.57;;;7.53;;
37843;SDS011;63793;57.632;18.292;2022-11-02T04:41:27;15.35;;;9.60;;
37843;SDS011;63793;57.632;18.292;2022-11-02T04:44:12;9.00;;;8.02;;
37843;SDS011;63793;57.632;18.292;2022-11-02T04:46:43;13.45;;;9.25;;
37843;SDS011;63793;57.632;18.292;2022-11-02T04:49:12;10.73;;;8.55;;
37843;SDS011;63793;57.632;18.292;2022-11-02T04:51:40;10.80;;;8.50;;
37843;SDS011;63793;57.632;18.292;2022-11-02T04:54:16;14.27;;;9.32;;
37843;SDS011;63793;57.632;18.292;2022-11-02T04:56:44;16.23;;;8.82;;
37843;SDS011;63793;57.632;18.292;2022-11-02T04:59:11;13.25;;;7.78;;
37843;SDS011;63793;57.632;18.292;2022-11-02T05:01:38;11.52;;;8.95;;
37843;SDS011;63793;57.632;18.292;2022-11-02T05:04:08;16.30;;;9.40;;
37843;SDS011;63793;57.632;18.292;2022-11-02T05:06:35;12.23;;;9.82;;
37843;SDS011;63793;57.632;18.292;2022-11-02T05:09:03;13.68;;;9.40;;
37843;SDS011;63793;57.632;18.292;2022-11-02T05:11:31;14.25;;;8.05;;
37843;SDS011;63793;57.632;18.292;2022-11-02T05:13:59;13.13;;;9.43;;
37843;SDS011;63793;57.632;18.292;2022-11-02T05:16:27;12.45;;;8.48;;
37843;SDS011;63793;57.632;18.292;2022-11-02T05:18:54;11.30;;;8.80;;
37843;SDS011;63793;57.632;18.292;2022-11-02T05:21:22;15.25;;;8.98;;
37843;SDS011;63793;57.632;18.292;2022-11-02T05:23:51;12.40;;;8.32;;
37843;SDS011;63793;57.632;18.292;2022-11-02T05:26:19;16.23;;;10.45;;
37843;SDS011;63793;57.632;18.292;2022-11-02T05:28:47;16.80;;;9.57;;
37843;SDS011;63793;57.632;18.292;2022-11-02T05:31:16;17.23;;;9.90;;
37843;SDS011;63793;57.632;18.292;2022-11-02T05:33:43;15.90;;;8.65;;
37843;SDS011;63793;57.632;18.292;2022-11-02T05:36:15;12.32;;;7.88;;
37843;SDS011;63793;57.632;18.292;2022-11-02T05:38:45;15.77;;;9.57;;
37843;SDS011;63793;57.632;18.292;2022-11-02T05:41:12;12.65;;;8.88;;
37843;SDS011;63793;57.632;18.292;2022-11-02T05:43:41;15.70;;;9.45;;
37843;SDS011;63793;57.632;18.292;2022-11-02T05:46:10;16.88;;;10.18;;
37843;SDS011;63793;57.632;18.292;2022-11-02T05:48:40;13.80;;;8.77;;
37843;SDS011;63793;57.632;18.292;2022-11-02T05:51:08;13.43;;;8.82;;
37843;SDS011;63793;57.632;18.292;2022-11-02T05:53:35;14.80;;;8.13;;
37843;SDS011;63793;57.632;18.292;2022-11-02T05:56:04;15.57;;;10.40;;
37843;SDS011;63793;57.632;18.292;2022-11-02T05:58:32;16.15;;;9.32;;
37843;SDS011;63793;57.632;18.292;2022-11-02T06:01:06;16.90;;;9.75;;
37843;SDS011;63793;57.632;18.292;2022-11-02T06:03:34;16.48;;;10.07;;
37843;SDS011;63793;57.632;18.292;2022-11-02T06:06:05;19.83;;;10.10;;
37843;SDS011;63793;57.632;18.292;2022-11-02T06:11:06;17.00;;;10.23;;
37843;SDS011;63793;57.632;18.292;2022-11-02T06:13:35;15.57;;;11.15;;
37843;SDS011;63793;57.632;18.292;2022-11-02T06:16:03;14.15;;;10.20;;
37843;SDS011;63793;57.632;18.292;2022-11-02T06:18:31;13.80;;;10.48;;
37843;SDS011;63793;57.632;18.292;2022-11-02T06:20:58;14.38;;;11.30;;
37843;SDS011;63793;57.632;18.292;2022-11-02T06:23:26;20.13;;;11.88;;
37843;SDS011;63793;57.632;18.292;2022-11-02T06:25:55;18.98;;;11.95;;
37843;SDS011;63793;57.632;18.292;2022-11-02T06:28:23;21.10;;;12.55;;
37843;SDS011;63793;57.632;18.292;2022-11-02T06:30:51;24.13;;;12.48;;
37843;SDS011;63793;57.632;18.292;2022-11-02T06:33:18;20.30;;;11.77;;
37843;SDS011;63793;57.632;18.292;2022-11-02T06:35:46;19.38;;;12.43;;
37843;SDS011;63793;57.632;18.292;2022-11-02T06:38:14;18.83;;;12.05;;
37843;SDS011;63793;57.632;18.292;2022-11-02T06:40:41;16.63;;;12.32;;
37843;SDS011;63793;57.632;18.292;2022-11-02T06:43:09;18.42;;;13.38;;
37843;SDS011;63793;57.632;18.292;2022-11-02T06:45:42;19.58;;;12.98;;
37843;SDS011;63793;57.632;18.292;2022-11-02T06:48:09;23.83;;;15.07;;
37843;SDS011;63793;57.632;18.292;2022-11-02T06:50:36;20.15;;;14.10;;
37843;SDS011;63793;57.632;18.292;2022-11-02T06:53:03;22.90;;;15.75;;
37843;SDS011;63793;57.632;18.292;2022-11-02T06:55:30;26.42;;;16.70;;
37843;SDS011;63793;57.632;18.292;2022-11-02T06:57:57;25.23;;;13.77;;
37843;SDS011;63793;57.632;18.292;2022-11-02T07:00:24;27.55;;;16.40;;
37843;SDS011;63793;57.632;18.292;2022-11-02T07:02:58;22.25;;;13.70;;
37843;SDS011;63793;57.632;18.292;2022-11-02T07:05:30;24.17;;;14.63;;
37843;SDS011;63793;57.632;18.292;2022-11-02T07:07:58;19.52;;;15.18;;
37843;SDS011;63793;57.632;18.292;2022-11-02T07:10:25;22.63;;;15.18;;
37843;SDS011;63793;57.632;18.292;2022-11-02T07:12:52;36.13;;;17.52;;
37843;SDS011;63793;57.632;18.292;2022-11-02T07:15:20;26.77;;;15.30;;
37843;SDS011;63793;57.632;18.292;2022-11-02T07:17:49;27.13;;;17.48;;
37843;SDS011;63793;57.632;18.292;2022-11-02T07:20:18;25.55;;;17.63;;
37843;SDS011;63793;57.632;18.292;2022-11-02T07:22:55;35.60;;;17.35;;
37843;SDS011;63793;57.632;18.292;2022-11-02T07:25:26;30.67;;;19.65;;
37843;SDS011;63793;57.632;18.292;2022-11-02T07:27:56;29.33;;;18.77;;
37843;SDS011;63793;57.632;18.292;2022-11-02T07:30:25;34.67;;;18.63;;
37843;SDS011;63793;57.632;18.292;2022-11-02T07:32:53;30.45;;;19.67;;
37843;SDS011;63793;57.632;18.292;2022-11-02T07:35:20;35.97;;;20.13;;
37843;SDS011;63793;57.632;18.292;2022-11-02T07:37:54;35.28;;;20.33;;
37843;SDS011;63793;57.632;18.292;2022-11-02T07:40:22;30.60;;;19.52;;
37843;SDS011;63793;57.632;18.292;2022-11-02T07:42:49;35.05;;;19.63;;
37843;SDS011;63793;57.632;18.292;2022-11-02T07:45:26;37.38;;;21.65;;
37843;SDS011;63793;57.632;18.292;2022-11-02T07:47:54;33.85;;;19.90;;
37843;SDS011;63793;57.632;18.292;2022-11-02T07:50:22;38.97;;;21.75;;
37843;SDS011;63793;57.632;18.292;2022-11-02T07:52:51;29.08;;;20.58;;
37843;SDS011;63793;57.632;18.292;2022-11-02T07:55:23;40.97;;;20.80;;
37843;SDS011;63793;57.632;18.292;2022-11-02T07:57:52;43.67;;;21.52;;
37843;SDS011;63793;57.632;18.292;2022-11-02T08:00:21;32.97;;;18.95;;
37843;SDS011;63793;57.632;18.292;2022-11-02T08:02:52;30.83;;;19.02;;
37843;SDS011;63793;57.632;18.292;2022-11-02T08:05:20;30.50;;;17.65;;
37843;SDS011;63793;57.632;18.292;2022-11-02T08:07:54;32.00;;;19.63;;
37843;SDS011;63793;57.632;18.292;2022-11-02T08:10:22;35.67;;;19.02;;
37843;SDS011;63793;57.632;18.292;2022-11-02T08:12:50;40.03;;;23.17;;
37843;SDS011;63793;57.632;18.292;2022-11-02T08:15:17;39.55;;;19.95;;
37843;SDS011;63793;57.632;18.292;2022-11-02T08:17:44;39.08;;;20.77;;
37843;SDS011;63793;57.632;18.292;2022-11-02T08:20:11;38.47;;;22.17;;
37843;SDS011;63793;57.632;18.292;2022-11-02T08:22:38;34.80;;;21.25;;
37843;SDS011;63793;57.632;18.292;2022-11-02T08:25:06;42.33;;;19.92;;
37843;SDS011;63793;57.632;18.292;2022-11-02T08:27:33;34.75;;;20.58;;
37843;SDS011;63793;57.632;18.292;2022-11-02T08:30:00;36.25;;;20.40;;
37843;SDS011;63793;57.632;18.292;2022-11-02T08:32:27;34.95;;;20.80;;
37843;SDS011;63793;57.632;18.292;2022-11-02T08:34:54;50.90;;;23.20;;
37843;SDS011;63793;57.632;18.292;2022-11-02T08:37:21;39.28;;;20.58;;
37843;SDS011;63793;57.632;18.292;2022-11-02T08:39:48;43.08;;;19.75;;
37843;SDS011;63793;57.632;18.292;2022-11-02T08:42:15;39.67;;;19.92;;
37843;SDS011;63793;57.632;18.292;2022-11-02T08:44:42;34.33;;;16.20;;
37843;SDS011;63793;57.632;18.292;2022-11-02T08:47:08;28.30;;;18.27;;
37843;SDS011;63793;57.632;18.292;2022-11-02T08:49:35;38.22;;;20.67;;
37843;SDS011;63793;57.632;18.292;2022-11-02T08:52:02;34.20;;;17.27;;
37843;SDS011;63793;57.632;18.292;2022-11-02T08:54:29;37.33;;;18.65;;
37843;SDS011;63793;57.632;18.292;2022-11-02T08:56:56;34.80;;;19.48;;
37843;SDS011;63793;57.632;18.292;2022-11-02T08:59:24;27.40;;;17.40;;
37843;SDS011;63793;57.632;18.292;2022-11-02T09:01:51;24.70;;;14.18;;
37843;SDS011;63793;57.632;18.292;2022-11-02T09:04:18;28.52;;;15.80;;
37843;SDS011;63793;57.632;18.292;2022-11-02T09:06:45;30.55;;;17.60;;
37843;SDS011;63793;57.632;18.292;2022-11-02T09:09:12;23.63;;;14.23;;
37843;SDS011;63793;57.632;18.292;2022-11-02T09:11:38;28.42;;;15.48;;
37843;SDS011;63793;57.632;18.292;2022-11-02T09:14:05;22.65;;;14.27;;
37843;SDS011;63793;57.632;18.292;2022-11-02T09:16:33;26.15;;;14.02;;
37843;SDS011;63793;57.632;18.292;2022-11-02T09:19:06;32.70;;;15.63;;
37843;SDS011;63793;57.632;18.292;2022-11-02T09:21:33;27.50;;;15.50;;
37843;SDS011;63793;57.632;18.292;2022-11-02T09:24:00;23.65;;;15.70;;
37843;SDS011;63793;57.632;18.292;2022-11-02T09:26:27;30.88;;;15.05;;
37843;SDS011;63793;57.632;18.292;2022-11-02T09:28:54;26.85;;;13.95;;
37843;SDS011;63793;57.632;18.292;2022-11-02T09:31:20;26.60;;;13.95;;
37843;SDS011;63793;57.632;18.292;2022-11-02T09:33:47;29.02;;;16.65;;
37843;SDS011;63793;57.632;18.292;2022-11-02T09:36:14;26.15;;;15.15;;
37843;SDS011;63793;57.632;18.292;2022-11-02T09:38:41;22.15;;;13.32;;
37843;SDS011;63793;57.632;18.292;2022-11-02T09:44:06;21.67;;;13.48;;
37843;SDS011;63793;57.632;18.292;2022-11-02T09:46:38;28.05;;;15.80;;
37843;SDS011;63793;57.632;18.292;2022-11-02T09:49:14;27.40;;;12.57;;
37843;SDS011;63793;57.632;18.292;2022-11-02T09:51:50;27.33;;;12.15;;
37843;SDS011;63793;57.632;18.292;2022-11-02T09:57:13;26.70;;;10.95;;
37843;SDS011;63793;57.632;18.292;2022-11-02T09:59:45;25.27;;;9.52;;
37843;SDS011;63793;57.632;18.292;2022-11-02T10:10:36;25.50;;;9.15;;
37843;SDS011;63793;57.632;18.292;2022-11-02T10:16:07;17.25;;;6.70;;
37843;SDS011;63793;57.632;18.292;2022-11-02T10:18:42;18.47;;;6.23;;
37843;SDS011;63793;57.632;18.292;2022-11-02T10:21:16;15.57;;;6.45;;
37843;SDS011;63793;57.632;18.292;2022-11-02T10:23:47;13.23;;;6.22;;
37843;SDS011;63793;57.632;18.292;2022-11-02T10:26:18;16.10;;;5.97;;
37843;SDS011;63793;57.632;18.292;2022-11-02T10:29:22;13.82;;;4.65;;
37843;SDS011;63793;57.632;18.292;2022-11-02T10:31:59;15.80;;;5.65;;
37843;SDS011;63793;57.632;18.292;2022-11-02T10:34:27;13.25;;;5.50;;
37843;SDS011;63793;57.632;18.292;2022-11-02T10:39:32;20.17;;;4.60;;
37843;SDS011;63793;57.632;18.292;2022-11-02T10:48:01;11.35;;;4.53;;
37843;SDS011;63793;57.632;18.292;2022-11-02T10:53:23;15.13;;;4.85;;
37843;SDS011;63793;57.632;18.292;2022-11-02T10:56:14;18.52;;;5.47;;
37843;SDS011;63793;57.632;18.292;2022-11-02T11:01:30;13.18;;;5.55;;
37843;SDS011;63793;57.632;18.292;2022-11-02T11:04:01;19.52;;;4.30;;
37843;SDS011;63793;57.632;18.292;2022-11-02T11:06:40;14.05;;;4.35;;
37843;SDS011;63793;57.632;18.292;2022-11-02T11:09:21;15.63;;;5.22;;
37843;SDS011;63793;57.632;18.292;2022-11-02T11:12:02;19.95;;;4.32;;
37843;SDS011;63793;57.632;18.292;2022-11-02T11:14:35;18.20;;;4.60;;
37843;SDS011;63793;57.632;18.292;2022-11-02T11:17:34;14.70;;;3.92;;
37843;SDS011;63793;57.632;18.292;2022-11-02T11:20:30;22.25;;;4.15;;
37843;SDS011;63793;57.632;18.292;2022-11-02T11:25:42;9.30;;;3.30;;
37843;SDS011;63793;57.632;18.292;2022-11-02T11:28:26;15.15;;;3.20;;
37843;SDS011;63793;57.632;18.292;2022-11-02T11:31:01;9.85;;;3.92;;
37843;SDS011;63793;57.632;18.292;2022-11-02T11:33:32;9.80;;;3.55;;
37843;SDS011;63793;57.632;18.292;2022-11-02T11:36:08;10.45;;;3.00;;
37843;SDS011;63793;57.632;18.292;2022-11-02T11:38:36;9.15;;;2.40;;
37843;SDS011;63793;57.632;18.292;2022-11-02T11:41:13;14.93;;;3.45;;
37843;SDS011;63793;57.632;18.292;2022-11-02T11:43:40;9.77;;;3.08;;
37843;SDS011;63793;57.632;18.292;2022-11-02T11:46:07;6.22;;;2.67;;
37843;SDS011;63793;57.632;18.292;2022-11-02T11:48:38;11.48;;;2.92;;
37843;SDS011;63793;57.632;18.292;2022-11-02T11:51:25;8.57;;;3.65;;
37843;SDS011;63793;57.632;18.292;2022-11-02T11:54:13;14.65;;;3.75;;
37843;SDS011;63793;57.632;18.292;2022-11-02T11:56:49;22.42;;;4.30;;
37843;SDS011;63793;57.632;18.292;2022-11-02T11:59:22;12.87;;;3.73;;
37843;SDS011;63793;57.632;18.292;2022-11-02T12:05:16;17.83;;;5.53;;
37843;SDS011;63793;57.632;18.292;2022-11-02T12:10:49;8.70;;;2.78;;
37843;SDS011;63793;57.632;18.292;2022-11-02T12:16:13;7.68;;;2.83;;
37843;SDS011;63793;57.632;18.292;2022-11-02T12:23:52;9.77;;;2.75;;
37843;SDS011;63793;57.632;18.292;2022-11-02T12:26:30;9.73;;;3.45;;
37843;SDS011;63793;57.632;18.292;2022-11-02T12:29:06;7.32;;;2.22;;
37843;SDS011;63793;57.632;18.292;2022-11-02T12:31:57;9.30;;;1.83;;
37843;SDS011;63793;57.632;18.292;2022-11-02T12:45:58;9.27;;;2.42;;
37843;SDS011;63793;57.632;18.292;2022-11-02T12:51:36;7.90;;;2.30;;
37843;SDS011;63793;57.632;18.292;2022-11-02T12:54:09;9.82;;;2.33;;
37843;SDS011;63793;57.632;18.292;2022-11-02T12:56:45;5.72;;;2.60;;
37843;SDS011;63793;57.632;18.292;2022-11-02T12:59:18;7.75;;;2.38;;
37843;SDS011;63793;57.632;18.292;2022-11-02T13:01:49;13.50;;;5.88;;
37843;SDS011;63793;57.632;18.292;2022-11-02T13:04:23;11.48;;;2.17;;
37843;SDS011;63793;57.632;18.292;2022-11-02T13:07:03;4.65;;;1.40;;
37843;SDS011;63793;57.632;18.292;2022-11-02T13:12:30;5.05;;;1.48;;
37843;SDS011;63793;57.632;18.292;2022-11-02T13:15:01;5.95;;;2.33;;
37843;SDS011;63793;57.632;18.292;2022-11-02T13:17:38;14.35;;;2.25;;
37843;SDS011;63793;57.632;18.292;2022-11-02T13:22:42;9.25;;;2.78;;
37843;SDS011;63793;57.632;18.292;2022-11-02T13:25:30;4.38;;;1.60;;
37843;SDS011;63793;57.632;18.292;2022-11-02T13:28:04;8.80;;;2.45;;
37843;SDS011;63793;57.632;18.292;2022-11-02T13:30:38;10.27;;;2.97;;
37843;SDS011;63793;57.632;18.292;2022-11-02T13:35:42;8.63;;;2.15;;
37843;SDS011;63793;57.632;18.292;2022-11-02T13:50:46;11.93;;;3.63;;
37843;SDS011;63793;57.632;18.292;2022-11-02T13:53:29;10.43;;;3.72;;
37843;SDS011;63793;57.632;18.292;2022-11-02T13:56:07;10.93;;;2.60;;
37843;SDS011;63793;57.632;18.292;2022-11-02T13:58:41;8.27;;;3.05;;
37843;SDS011;63793;57.632;18.292;2022-11-02T14:01:16;7.93;;;2.38;;
37843;SDS011;63793;57.632;18.292;2022-11-02T14:06:27;5.97;;;2.78;;
37843;SDS011;63793;57.632;18.292;2022-11-02T14:08:58;8.70;;;2.58;;
37843;SDS011;63793;57.632;18.292;2022-11-02T14:14:40;11.57;;;3.42;;
37843;SDS011;63793;57.632;18.292;2022-11-02T14:17:11;8.15;;;3.33;;
37843;SDS011;63793;57.632;18.292;2022-11-02T14:22:12;8.32;;;3.08;;
37843;SDS011;63793;57.632;18.292;2022-11-02T14:37:45;7.90;;;3.78;;
37843;SDS011;63793;57.632;18.292;2022-11-02T14:40:52;14.23;;;4.32;;
37843;SDS011;63793;57.632;18.292;2022-11-02T14:46:31;12.10;;;3.50;;
37843;SDS011;63793;57.632;18.292;2022-11-02T14:49:01;16.77;;;4.10;;
37843;SDS011;63793;57.632;18.292;2022-11-02T14:51:30;19.45;;;3.67;;
37843;SDS011;63793;57.632;18.292;2022-11-02T14:54:13;13.95;;;5.97;;
37843;SDS011;63793;57.632;18.292;2022-11-02T14:59:16;12.20;;;4.28;;
37843;SDS011;63793;57.632;18.292;2022-11-02T15:01:54;13.40;;;4.93;;
37843;SDS011;63793;57.632;18.292;2022-11-02T15:04:24;9.50;;;3.70;;
37843;SDS011;63793;57.632;18.292;2022-11-02T15:06:54;8.43;;;4.38;;
37843;SDS011;63793;57.632;18.292;2022-11-02T15:12:38;13.65;;;4.47;;
37843;SDS011;63793;57.632;18.292;2022-11-02T15:22:52;11.38;;;4.32;;
37843;SDS011;63793;57.632;18.292;2022-11-02T15:25:34;9.18;;;3.70;;
37843;SDS011;63793;57.632;18.292;2022-11-02T15:28:06;9.52;;;4.30;;
37843;SDS011;63793;57.632;18.292;2022-11-02T15:30:42;15.73;;;5.93;;
37843;SDS011;63793;57.632;18.292;2022-11-02T15:33:46;17.95;;;6.00;;
37843;SDS011;63793;57.632;18.292;2022-11-02T15:36:16;11.98;;;4.30;;
37843;SDS011;63793;57.632;18.292;2022-11-02T15:38:49;11.52;;;4.53;;
37843;SDS011;63793;57.632;18.292;2022-11-02T15:46:34;20.52;;;6.72;;
37843;SDS011;63793;57.632;18.292;2022-11-02T15:49:32;9.13;;;4.25;;
37843;SDS011;63793;57.632;18.292;2022-11-02T15:58:01;17.35;;;5.90;;
37843;SDS011;63793;57.632;18.292;2022-11-02T16:00:39;14.88;;;5.65;;
37843;SDS011;63793;57.632;18.292;2022-11-02T16:03:06;16.00;;;5.78;;
37843;SDS011;63793;57.632;18.292;2022-11-02T16:05:44;16.27;;;5.72;;
37843;SDS011;63793;57.632;18.292;2022-11-02T16:08:22;17.83;;;5.65;;
37843;SDS011;63793;57.632;18.292;2022-11-02T16:11:17;28.38;;;7.05;;
37843;SDS011;63793;57.632;18.292;2022-11-02T16:13:44;16.08;;;6.07;;
37843;SDS011;63793;57.632;18.292;2022-11-02T16:16:32;13.95;;;4.90;;
37843;SDS011;63793;57.632;18.292;2022-11-02T16:19:20;14.90;;;5.47;;
37843;SDS011;63793;57.632;18.292;2022-11-02T16:21:48;23.42;;;6.03;;
37843;SDS011;63793;57.632;18.292;2022-11-02T16:24:15;17.90;;;6.25;;
37843;SDS011;63793;57.632;18.292;2022-11-02T16:26:43;10.90;;;6.32;;
37843;SDS011;63793;57.632;18.292;2022-11-02T16:29:16;21.90;;;6.32;;
37843;SDS011;63793;57.632;18.292;2022-11-02T16:31:54;11.02;;;6.70;;
37843;SDS011;63793;57.632;18.292;2022-11-02T16:34:24;15.15;;;6.43;;
37843;SDS011;63793;57.632;18.292;2022-11-02T16:36:54;32.75;;;8.80;;
37843;SDS011;63793;57.632;18.292;2022-11-02T16:39:43;15.20;;;6.55;;
37843;SDS011;63793;57.632;18.292;2022-11-02T16:42:16;11.88;;;6.40;;
37843;SDS011;63793;57.632;18.292;2022-11-02T16:44:54;15.40;;;5.78;;
37843;SDS011;63793;57.632;18.292;2022-11-02T16:47:28;16.88;;;6.50;;
37843;SDS011;63793;57.632;18.292;2022-11-02T16:50:00;30.30;;;8.02;;
37843;SDS011;63793;57.632;18.292;2022-11-02T16:54:58;18.35;;;7.07;;
37843;SDS011;63793;57.632;18.292;2022-11-02T16:57:33;13.80;;;5.63;;
37843;SDS011;63793;57.632;18.292;2022-11-02T17:00:26;13.90;;;6.88;;
37843;SDS011;63793;57.632;18.292;2022-11-02T17:02:53;19.02;;;6.55;;
37843;SDS011;63793;57.632;18.292;2022-11-02T17:05:24;17.88;;;6.82;;
37843;SDS011;63793;57.632;18.292;2022-11-02T17:07:59;16.17;;;6.47;;
37843;SDS011;63793;57.632;18.292;2022-11-02T17:10:27;10.65;;;6.15;;
37843;SDS011;63793;57.632;18.292;2022-11-02T17:12:54;14.43;;;6.03;;
37843;SDS011;63793;57.632;18.292;2022-11-02T17:15:23;11.77;;;6.75;;
37843;SDS011;63793;57.632;18.292;2022-11-02T17:20:35;14.45;;;6.40;;
37843;SDS011;63793;57.632;18.292;2022-11-02T17:23:04;13.63;;;6.32;;
37843;SDS011;63793;57.632;18.292;2022-11-02T17:25:36;12.38;;;5.55;;
37843;SDS011;63793;57.632;18.292;2022-11-02T17:31:20;21.90;;;7.25;;
37843;SDS011;63793;57.632;18.292;2022-11-02T17:33:49;12.75;;;5.03;;
37843;SDS011;63793;57.632;18.292;2022-11-02T17:36:17;12.05;;;5.72;;
37843;SDS011;63793;57.632;18.292;2022-11-02T17:38:44;18.30;;;5.10;;
37843;SDS011;63793;57.632;18.292;2022-11-02T17:41:12;10.05;;;4.60;;